createdAt,value
2023-02-28T06:02:12.898Z,100.00
2023-02-28T06:04:39.759Z,100.00
2023-02-28T06:07:06.235Z,100.00
2023-02-28T06:09:33.216Z,100.00
2023-02-28T06:12:06.475Z,100.00
2023-02-28T06:14:34.862Z,100.00
2023-02-28T06:17:01.944Z,100.00
2023-02-28T06:19:31.191Z,100.00
2023-02-28T06:21:58.276Z,100.00
2023-02-28T06:24:29.199Z,100.00
2023-02-28T06:26:56.150Z,100.00
2023-02-28T06:29:23.400Z,100.00
2023-02-28T06:31:49.996Z,100.00
2023-02-28T06:34:17.697Z,100.00
2023-02-28T06:36:44.657Z,100.00
2023-02-28T06:39:11.815Z,100.00
2023-02-28T06:41:53.514Z,100.00
2023-02-28T06:44:23.281Z,100.00
2023-02-28T06:46:50.225Z,100.00
2023-02-28T06:49:17.769Z,100.00
2023-02-28T06:51:48.683Z,100.00
2023-02-28T06:54:16.804Z,100.00
2023-02-28T06:56:43.289Z,100.00
2023-02-28T06:59:10.579Z,100.00
2023-02-28T07:01:37.238Z,100.00
2023-02-28T07:04:06.798Z,100.00
2023-02-28T07:06:33.698Z,100.00
2023-02-28T07:09:01.369Z,100.00
2023-02-28T07:11:29.409Z,100.00
2023-02-28T07:13:57.794Z,100.00
2023-02-28T07:16:25.816Z,100.00
2023-02-28T07:18:56.448Z,100.00
2023-02-28T07:21:23.324Z,100.00
2023-02-28T07:23:50.877Z,100.00
2023-02-28T07:26:19.427Z,100.00
2023-02-28T07:28:48.647Z,100.00
2023-02-28T07:31:16.863Z,100.00
2023-02-28T07:33:44.542Z,100.00
2023-02-28T07:36:16.066Z,100.00
2023-02-28T07:38:48.136Z,100.00
2023-02-28T07:41:16.837Z,100.00
2023-02-28T07:43:45.833Z,100.00
2023-02-28T07:46:15.957Z,100.00
2023-02-28T07:48:43.892Z,100.00
2023-02-28T07:51:10.887Z,100.00
2023-02-28T07:53:38.029Z,100.00
2023-02-28T07:56:05.210Z,100.00
2023-02-28T07:58:32.817Z,100.00
2023-02-28T08:01:09.669Z,100.00
2023-02-28T08:03:37.558Z,100.00
2023-02-28T08:06:09.165Z,100.00
2023-02-28T08:08:36.567Z,100.00
2023-02-28T08:11:04.318Z,100.00
2023-02-28T08:13:31.818Z,100.00
2023-02-28T08:15:58.382Z,100.00
2023-02-28T08:18:25.590Z,100.00
2023-02-28T08:20:52.400Z,100.00
2023-02-28T08:23:19.920Z,100.00
2023-02-28T08:25:54.202Z,100.00
2023-02-28T08:28:21.347Z,100.00
2023-02-28T08:30:47.837Z,100.00
2023-02-28T08:33:14.950Z,100.00
2023-02-28T08:35:41.476Z,100.00
2023-02-28T08:38:08.549Z,100.00
2023-02-28T08:40:35.093Z,100.00
2023-02-28T08:43:02.232Z,100.00
2023-02-28T08:45:28.733Z,100.00
2023-02-28T08:47:56.702Z,100.00
2023-02-28T08:50:23.650Z,100.00
2023-02-28T08:52:51.964Z,100.00
2023-02-28T08:55:18.519Z,100.00
2023-02-28T08:57:45.755Z,100.00
2023-02-28T09:00:14.564Z,100.00
2023-02-28T09:02:43.968Z,100.00
2023-02-28T09:05:10.620Z,100.00
2023-02-28T09:07:37.892Z,100.00
2023-02-28T09:10:04.932Z,100.00
2023-02-28T09:12:35.972Z,100.00
2023-02-28T09:15:03.080Z,100.00
2023-02-28T09:17:30.807Z,100.00
2023-02-28T09:19:58.439Z,100.00
2023-02-28T09:22:25.722Z,100.00
2023-02-28T09:24:52.186Z,100.00
2023-02-28T09:27:19.282Z,100.00
2023-02-28T09:29:45.764Z,100.00
2023-02-28T09:32:13.208Z,100.00
2023-02-28T09:34:39.804Z,100.00
2023-02-28T09:37:07.148Z,100.00
2023-02-28T09:39:33.779Z,100.00
2023-02-28T09:42:03.568Z,100.00
2023-02-28T09:44:37.961Z,100.00
2023-02-28T09:47:27.023Z,100.00
2023-02-28T09:49:54.064Z,100.00
2023-02-28T09:52:29.304Z,100.00
2023-02-28T09:54:55.918Z,100.00
2023-02-28T09:57:52.983Z,100.00
2023-02-28T10:00:25.646Z,100.00
2023-02-28T10:03:05.380Z,100.00
2023-02-28T10:05:54.468Z,100.00
2023-02-28T10:08:28.955Z,100.00
2023-02-28T10:11:01.467Z,100.00
2023-02-28T10:13:34.432Z,100.00
2023-02-28T10:16:12.204Z,100.00
2023-02-28T10:18:48.174Z,100.00
2023-02-28T10:21:21.837Z,100.00
2023-02-28T10:23:50.298Z,100.00
2023-02-28T10:26:18.650Z,100.00
2023-02-28T10:28:46.517Z,100.00
2023-02-28T10:31:20.386Z,100.00
2023-02-28T10:33:48.455Z,100.00
2023-02-28T10:36:17.603Z,100.00
2023-02-28T10:38:46.173Z,100.00
2023-02-28T10:41:16.189Z,100.00
2023-02-28T10:43:46.310Z,100.00
2023-02-28T10:46:27.204Z,100.00
2023-02-28T10:49:04.733Z,100.00
2023-02-28T10:51:39.813Z,100.00
2023-02-28T10:54:15.633Z,100.00
2023-02-28T10:56:42.834Z,100.00
2023-02-28T10:59:09.876Z,100.00
2023-02-28T11:01:40.821Z,100.00
2023-02-28T11:04:31.067Z,100.00
2023-02-28T11:07:00.506Z,100.00
2023-02-28T11:09:30.817Z,100.00
2023-02-28T11:11:57.739Z,100.00
2023-02-28T11:14:35.428Z,100.00
2023-02-28T11:17:24.535Z,100.00
2023-02-28T11:19:56.493Z,99.09
2023-02-28T11:22:29.951Z,95.64
2023-02-28T11:25:00.477Z,93.62
2023-02-28T11:27:46.255Z,92.48
2023-02-28T11:30:25.016Z,89.28
2023-02-28T11:32:52.280Z,87.66
2023-02-28T11:35:25.449Z,92.60
2023-02-28T11:37:56.362Z,94.48
2023-02-28T11:40:46.976Z,92.40
2023-02-28T11:43:26.104Z,89.73
2023-02-28T11:46:28.235Z,91.27
2023-02-28T11:49:26.472Z,95.18
2023-02-28T11:52:01.496Z,96.88
2023-02-28T11:54:49.903Z,91.92
2023-02-28T11:57:59.088Z,92.15
2023-02-28T12:01:04.147Z,90.73
2023-02-28T12:03:46.740Z,90.72
2023-02-28T12:06:22.974Z,95.12
2023-02-28T12:09:07.629Z,91.50
2023-02-28T12:11:42.845Z,93.96
2023-02-28T12:14:39.399Z,97.56
2023-02-28T12:17:18.043Z,99.10
2023-02-28T12:20:35.763Z,90.10
2023-02-28T12:23:55.187Z,89.36
2023-02-28T12:26:37.310Z,88.87
2023-02-28T12:29:29.873Z,90.12
2023-02-28T12:32:15.237Z,89.60
2023-02-28T12:34:50.595Z,89.50
2023-02-28T12:37:25.572Z,89.52
2023-02-28T12:40:00.741Z,91.23
2023-02-28T12:42:31.393Z,93.47
2023-02-28T12:45:13.033Z,94.25
2023-02-28T12:47:43.615Z,91.25
2023-02-28T12:50:13.337Z,90.24
2023-02-28T12:52:42.858Z,89.49
2023-02-28T12:55:15.833Z,88.46
2023-02-28T12:57:53.484Z,88.70
2023-02-28T13:00:23.484Z,84.41
2023-02-28T13:03:10.139Z,85.46
2023-02-28T13:05:52.199Z,85.97
2023-02-28T13:08:41.799Z,86.35
2023-02-28T13:11:24.090Z,84.52
2023-02-28T13:13:58.973Z,84.41
2023-02-28T13:16:25.567Z,85.32
2023-02-28T13:18:53.617Z,85.83
2023-02-28T13:21:28.542Z,85.46
2023-02-28T13:23:59.265Z,86.86
2023-02-28T13:26:32.445Z,86.96
2023-02-28T13:29:01.984Z,85.69
2023-02-28T13:31:29.724Z,86.81
2023-02-28T13:34:00.286Z,86.20
2023-02-28T13:36:33.299Z,87.72
2023-02-28T13:39:05.107Z,88.32
2023-02-28T13:41:32.508Z,88.13
2023-02-28T13:44:02.907Z,89.27
2023-02-28T13:46:30.133Z,89.87
2023-02-28T13:48:57.056Z,90.14
2023-02-28T13:51:45.436Z,89.08
2023-02-28T13:54:31.578Z,91.43
2023-02-28T13:57:20.491Z,91.80
2023-02-28T13:59:51.418Z,90.43
2023-02-28T14:02:42.367Z,91.53
2023-02-28T14:05:22.815Z,90.96
2023-02-28T14:07:54.102Z,93.94
2023-02-28T14:10:33.871Z,94.85
2023-02-28T14:13:35.331Z,93.71
2023-02-28T14:16:04.890Z,94.21
2023-02-28T14:18:37.195Z,95.55
2023-02-28T14:21:26.720Z,93.83
2023-02-28T14:24:32.122Z,95.07
2023-02-28T14:27:12.995Z,95.63
2023-02-28T14:29:48.475Z,91.37
2023-02-28T14:32:36.433Z,92.53
2023-02-28T14:35:16.737Z,94.09
2023-02-28T14:37:44.705Z,94.79
2023-02-28T14:40:32.186Z,91.98
2023-02-28T14:43:01.363Z,92.28
2023-02-28T14:45:31.754Z,91.43
2023-02-28T14:48:00.194Z,90.48
2023-02-28T14:50:37.277Z,90.87
2023-02-28T14:53:07.158Z,90.94
2023-02-28T14:55:36.986Z,88.87
2023-02-28T14:58:26.620Z,88.78
2023-02-28T15:00:57.381Z,90.45
2023-02-28T15:03:32.674Z,90.00
2023-02-28T15:06:03.530Z,89.67
2023-02-28T15:08:32.756Z,90.33
2023-02-28T15:11:03.241Z,91.33
2023-02-28T15:13:48.615Z,91.69
2023-02-28T15:16:23.305Z,93.29
2023-02-28T15:18:53.819Z,92.35
2023-02-28T15:21:28.289Z,93.98
2023-02-28T15:24:00.129Z,94.94
2023-02-28T15:26:32.788Z,95.59
2023-02-28T15:29:06.576Z,94.47
2023-02-28T15:31:55.810Z,96.02
2023-02-28T15:34:42.297Z,95.82
2023-02-28T15:37:49.109Z,96.90
2023-02-28T15:40:23.433Z,94.19
2023-02-28T15:43:04.964Z,94.63
2023-02-28T15:45:39.700Z,95.29
2023-02-28T15:48:16.261Z,92.74
2023-02-28T15:50:43.741Z,94.06
2023-02-28T15:53:17.065Z,93.77
2023-02-28T15:55:45.240Z,96.53
2023-02-28T15:58:13.896Z,97.48
2023-02-28T16:00:46.572Z,96.71
2023-02-28T16:03:45.080Z,99.63
2023-02-28T16:06:18.305Z,100.00
2023-02-28T16:08:45.388Z,100.00
2023-02-28T16:11:12.482Z,100.00
2023-02-28T16:13:39.732Z,100.00
2023-02-28T16:16:06.637Z,100.00
2023-02-28T16:18:33.768Z,100.00
2023-02-28T16:21:00.319Z,100.00
2023-02-28T16:23:27.438Z,100.00
2023-02-28T16:25:54.182Z,100.00
2023-02-28T16:28:25.068Z,100.00
2023-02-28T16:30:54.955Z,100.00
2023-02-28T16:33:22.128Z,100.00
2023-02-28T16:35:48.603Z,100.00
2023-02-28T16:38:15.755Z,100.00
2023-02-28T16:40:42.341Z,100.00
2023-02-28T16:43:17.740Z,100.00
2023-02-28T16:45:44.491Z,100.00
2023-02-28T16:48:17.182Z,100.00
2023-02-28T16:50:47.157Z,100.00
2023-02-28T16:53:14.771Z,100.00
2023-02-28T16:55:42.467Z,100.00
2023-02-28T16:58:15.841Z,100.00
2023-02-28T17:00:42.730Z,100.00
2023-02-28T17:03:32.592Z,100.00
2023-02-28T17:06:00.944Z,100.00
2023-02-28T17:08:30.004Z,100.00
2023-02-28T17:10:56.713Z,100.00
2023-02-28T17:13:23.837Z,100.00
2023-02-28T17:15:50.876Z,100.00
2023-02-28T17:18:21.253Z,100.00
2023-02-28T17:20:48.595Z,100.00
2023-02-28T17:23:16.210Z,100.00
2023-02-28T17:25:50.124Z,100.00
2023-02-28T17:28:17.271Z,100.00
2023-02-28T17:30:47.981Z,100.00
2023-02-28T17:33:16.052Z,100.00
2023-02-28T17:35:42.683Z,100.00
2023-02-28T17:38:16.818Z,100.00
2023-02-28T17:40:44.090Z,100.00
2023-02-28T17:43:11.629Z,100.00
2023-02-28T17:45:38.302Z,100.00
2023-02-28T17:48:06.180Z,100.00
2023-02-28T17:50:33.845Z,100.00
2023-02-28T17:53:00.715Z,100.00
2023-02-28T17:55:27.677Z,100.00
2023-02-28T17:57:54.787Z,100.00
2023-02-28T18:00:24.912Z,100.00
2023-02-28T18:02:52.493Z,100.00
2023-02-28T18:05:19.137Z,100.00
2023-02-28T18:07:46.511Z,100.00
2023-02-28T18:10:20.013Z,100.00
2023-02-28T18:12:48.975Z,100.00
2023-02-28T18:15:17.525Z,100.00
2023-02-28T18:17:44.779Z,100.00
2023-02-28T18:20:12.203Z,100.00
2023-02-28T18:22:40.672Z,100.00
2023-02-28T18:25:09.373Z,100.00
2023-02-28T18:27:37.437Z,100.00
2023-02-28T18:30:05.139Z,100.00
2023-02-28T18:32:32.187Z,100.00
2023-02-28T18:34:58.737Z,100.00
2023-02-28T18:37:25.872Z,100.00
2023-02-28T18:39:52.418Z,100.00
2023-02-28T18:42:19.584Z,100.00
2023-02-28T18:44:46.132Z,100.00
2023-02-28T18:47:13.426Z,100.00
2023-02-28T18:49:39.938Z,100.00
2023-02-28T18:52:07.050Z,100.00
2023-02-28T18:54:33.611Z,100.00
2023-02-28T18:57:01.055Z,100.00
2023-02-28T18:59:27.709Z,100.00
2023-02-28T19:01:54.786Z,100.00
2023-02-28T19:04:21.476Z,100.00
2023-02-28T19:06:49.853Z,100.00
2023-02-28T19:09:16.403Z,100.00
2023-02-28T19:11:43.681Z,100.00
2023-02-28T19:14:10.245Z,100.00
2023-02-28T19:16:37.505Z,100.00
2023-02-28T19:19:04.070Z,100.00
2023-02-28T19:21:31.060Z,100.00
2023-02-28T19:23:58.245Z,100.00
2023-02-28T19:26:26.603Z,100.00
2023-02-28T19:28:53.869Z,100.00
2023-02-28T19:31:25.817Z,100.00
2023-02-28T19:33:53.514Z,100.00
2023-02-28T19:36:20.945Z,100.00
2023-02-28T19:38:48.655Z,100.00
2023-02-28T19:41:17.613Z,100.00
2023-02-28T19:43:44.817Z,100.00
2023-02-28T19:46:12.619Z,100.00
2023-02-28T19:48:40.194Z,100.00
2023-02-28T19:51:10.496Z,100.00
2023-02-28T19:53:39.201Z,100.00
2023-02-28T19:56:06.526Z,100.00
2023-02-28T19:58:34.213Z,100.00
2023-02-28T20:01:12.768Z,100.00
2023-02-28T20:03:40.112Z,100.00
2023-02-28T20:06:09.848Z,100.00
2023-02-28T20:08:38.535Z,100.00
2023-02-28T20:11:10.187Z,100.00
2023-02-28T20:13:37.932Z,100.00
2023-02-28T20:16:09.364Z,100.00
2023-02-28T20:18:39.907Z,100.00
2023-02-28T20:21:12.069Z,100.00
2023-02-28T20:23:40.044Z,100.00
2023-02-28T20:26:07.786Z,100.00
2023-02-28T20:28:34.975Z,100.00
2023-02-28T20:31:01.966Z,100.00
2023-02-28T20:33:28.944Z,100.00
2023-02-28T20:36:02.684Z,100.00
2023-02-28T20:38:29.375Z,100.00
2023-02-28T20:41:00.250Z,100.00
2023-02-28T20:43:27.408Z,100.00
2023-02-28T20:45:58.566Z,100.00
2023-02-28T20:48:25.731Z,100.00
2023-02-28T20:50:55.060Z,100.00
2023-02-28T20:53:24.535Z,100.00
2023-02-28T20:56:18.985Z,100.00
2023-02-28T20:58:47.916Z,100.00
2023-02-28T21:01:18.598Z,100.00
2023-02-28T21:03:49.978Z,100.00
2023-02-28T21:06:20.319Z,100.00
2023-02-28T21:08:47.071Z,100.00
2023-02-28T21:11:17.292Z,100.00
2023-02-28T21:13:45.132Z,100.00
2023-02-28T21:16:17.738Z,100.00
2023-02-28T21:18:45.879Z,100.00
2023-02-28T21:21:15.761Z,100.00
2023-02-28T21:23:45.157Z,100.00
2023-02-28T21:26:14.734Z,100.00
2023-02-28T21:28:44.167Z,100.00
